sensor_id;sensor_type;location;lat;lon;timestamp;temperature;humidity
2391;DHT22;22957;50.824;4.360;2022-07-29T00:01:17;20.60;99.90
2391;DHT22;22957;50.824;4.360;2022-07-29T00:03:42;20.20;99.90
2391;DHT22;22957;50.824;4.360;2022-07-29T00:06:08;20.10;99.90
2391;DHT22;22957;50.824;4.360;2022-07-29T00:08:34;20.30;99.90
2391;DHT22;22957;50.824;4.360;2022-07-29T00:10:59;20.00;99.90
2391;DHT22;22957;50.824;4.360;2022-07-29T00:13:25;20.00;99.90
2391;DHT22;22957;50.824;4.360;2022-07-29T00:15:51;19.40;99.90
2391;DHT22;22957;50.824;4.360;2022-07-29T00:18:18;19.80;99.90
2391;DHT22;22957;50.824;4.360;2022-07-29T00:28:30;19.50;99.90
2391;DHT22;22957;50.824;4.360;2022-07-29T00:30:56;19.80;99.90
2391;DHT22;22957;50.824;4.360;2022-07-29T00:33:23;19.80;99.90
2391;DHT22;22957;50.824;4.360;2022-07-29T00:35:49;20.60;99.90
2391;DHT22;22957;50.824;4.360;2022-07-29T00:38:17;19.90;99.90
2391;DHT22;22957;50.824;4.360;2022-07-29T00:40:43;19.30;99.90
2391;DHT22;22957;50.824;4.360;2022-07-29T00:43:10;19.30;99.90
2391;DHT22;22957;50.824;4.360;2022-07-29T00:45:36;19.30;99.90
2391;DHT22;22957;50.824;4.360;2022-07-29T00:48:03;19.80;99.90
2391;DHT22;22957;50.824;4.360;2022-07-29T00:53:07;19.20;99.90
2391;DHT22;22957;50.824;4.360;2022-07-29T00:55:33;19.80;99.90
2391;DHT22;22957;50.824;4.360;2022-07-29T00:57:59;19.60;99.90
2391;DHT22;22957;50.824;4.360;2022-07-29T01:00:27;19.20;99.90
2391;DHT22;22957;50.824;4.360;2022-07-29T01:02:53;19.00;99.90
2391;DHT22;22957;50.824;4.360;2022-07-29T01:05:21;19.00;99.90
2391;DHT22;22957;50.824;4.360;2022-07-29T01:07:51;19.00;99.90
2391;DHT22;22957;50.824;4.360;2022-07-29T01:10:18;19.30;99.90
2391;DHT22;22957;50.824;4.360;2022-07-29T01:12:47;19.90;99.90
2391;DHT22;22957;50.824;4.360;2022-07-29T01:15:13;19.40;99.90
2391;DHT22;22957;50.824;4.360;2022-07-29T01:31:48;19.50;99.90
2391;DHT22;22957;50.824;4.360;2022-07-29T01:34:53;19.30;99.90
2391;DHT22;22957;50.824;4.360;2022-07-29T01:37:33;19.30;99.90
2391;DHT22;22957;50.824;4.360;2022-07-29T01:40:03;19.50;99.90
2391;DHT22;22957;50.824;4.360;2022-07-29T01:42:36;19.90;99.90
2391;DHT22;22957;50.824;4.360;2022-07-29T01:45:18;19.50;99.90
2391;DHT22;22957;50.824;4.360;2022-07-29T01:50:36;20.10;99.90
2391;DHT22;22957;50.824;4.360;2022-07-29T01:53:09;19.70;99.90
2391;DHT22;22957;50.824;4.360;2022-07-29T01:55:39;20.10;99.90
2391;DHT22;22957;50.824;4.360;2022-07-29T01:58:10;19.50;99.90
2391;DHT22;22957;50.824;4.360;2022-07-29T02:00:39;19.10;99.90
2391;DHT22;22957;50.824;4.360;2022-07-29T02:03:09;19.30;99.90
2391;DHT22;22957;50.824;4.360;2022-07-29T02:05:38;19.20;99.90
2391;DHT22;22957;50.824;4.360;2022-07-29T02:08:07;19.30;99.90
2391;DHT22;22957;50.824;4.360;2022-07-29T02:10:35;19.40;99.90
2391;DHT22;22957;50.824;4.360;2022-07-29T02:13:02;18.70;99.90
2391;DHT22;22957;50.824;4.360;2022-07-29T02:15:32;18.50;99.90
2391;DHT22;22957;50.824;4.360;2022-07-29T02:18:14;18.60;99.90
2391;DHT22;22957;50.824;4.360;2022-07-29T02:20:49;18.30;99.90
2391;DHT22;22957;50.824;4.360;2022-07-29T02:23:20;18.50;99.90
2391;DHT22;22957;50.824;4.360;2022-07-29T02:25:53;18.90;99.90
2391;DHT22;22957;50.824;4.360;2022-07-29T02:28:22;18.50;99.90
2391;DHT22;22957;50.824;4.360;2022-07-29T02:30:50;18.20;99.90
2391;DHT22;22957;50.824;4.360;2022-07-29T02:33:17;18.40;99.90
2391;DHT22;22957;50.824;4.360;2022-07-29T02:35:47;18.60;99.90
2391;DHT22;22957;50.824;4.360;2022-07-29T02:38:15;18.50;99.90
2391;DHT22;22957;50.824;4.360;2022-07-29T02:41:03;18.30;99.90
2391;DHT22;22957;50.824;4.360;2022-07-29T02:43:31;18.90;99.90
2391;DHT22;22957;50.824;4.360;2022-07-29T02:45:59;18.70;99.90
2391;DHT22;22957;50.824;4.360;2022-07-29T02:48:41;18.90;99.90
2391;DHT22;22957;50.824;4.360;2022-07-29T02:51:23;18.60;99.90
2391;DHT22;22957;50.824;4.360;2022-07-29T02:53:51;18.60;99.90
2391;DHT22;22957;50.824;4.360;2022-07-29T02:56:25;18.70;99.90
2391;DHT22;22957;50.824;4.360;2022-07-29T02:58:55;18.70;99.90
2391;DHT22;22957;50.824;4.360;2022-07-29T03:01:23;19.30;99.90
2391;DHT22;22957;50.824;4.360;2022-07-29T03:03:53;19.60;99.90
2391;DHT22;22957;50.824;4.360;2022-07-29T03:06:22;19.40;99.90
2391;DHT22;22957;50.824;4.360;2022-07-29T03:08:50;19.20;99.90
2391;DHT22;22957;50.824;4.360;2022-07-29T03:11:17;18.90;99.90
2391;DHT22;22957;50.824;4.360;2022-07-29T03:13:44;19.00;99.90
2391;DHT22;22957;50.824;4.360;2022-07-29T03:16:10;18.90;99.90
2391;DHT22;22957;50.824;4.360;2022-07-29T03:18:37;19.00;99.90
2391;DHT22;22957;50.824;4.360;2022-07-29T03:21:03;19.00;99.90
2391;DHT22;22957;50.824;4.360;2022-07-29T03:23:29;18.40;99.90
2391;DHT22;22957;50.824;4.360;2022-07-29T03:26:02;18.20;99.90
2391;DHT22;22957;50.824;4.360;2022-07-29T03:28:29;18.10;99.90
2391;DHT22;22957;50.824;4.360;2022-07-29T03:30:55;18.40;99.90
2391;DHT22;22957;50.824;4.360;2022-07-29T03:33:21;18.30;99.90
2391;DHT22;22957;50.824;4.360;2022-07-29T03:35:47;18.20;99.90
2391;DHT22;22957;50.824;4.360;2022-07-29T03:38:13;18.20;99.90
2391;DHT22;22957;50.824;4.360;2022-07-29T03:40:52;18.50;99.90
2391;DHT22;22957;50.824;4.360;2022-07-29T03:43:20;18.10;99.90
2391;DHT22;22957;50.824;4.360;2022-07-29T03:45:51;18.30;99.90
2391;DHT22;22957;50.824;4.360;2022-07-29T03:48:20;18.40;99.90
2391;DHT22;22957;50.824;4.360;2022-07-29T03:50:47;18.20;99.90
2391;DHT22;22957;50.824;4.360;2022-07-29T03:53:14;17.70;99.90
2391;DHT22;22957;50.824;4.360;2022-07-29T03:55:45;18.00;99.90
2391;DHT22;22957;50.824;4.360;2022-07-29T03:58:13;17.90;99.90
2391;DHT22;22957;50.824;4.360;2022-07-29T04:00:41;17.70;99.90
2391;DHT22;22957;50.824;4.360;2022-07-29T04:03:08;17.70;99.90
2391;DHT22;22957;50.824;4.360;2022-07-29T04:05:39;17.70;99.90
2391;DHT22;22957;50.824;4.360;2022-07-29T04:08:08;17.70;99.90
2391;DHT22;22957;50.824;4.360;2022-07-29T04:10:35;18.20;99.90
2391;DHT22;22957;50.824;4.360;2022-07-29T04:13:02;18.50;99.90
2391;DHT22;22957;50.824;4.360;2022-07-29T04:15:27;18.30;99.90
2391;DHT22;22957;50.824;4.360;2022-07-29T04:17:55;18.20;99.90
2391;DHT22;22957;50.824;4.360;2022-07-29T04:20:21;18.10;99.90
2391;DHT22;22957;50.824;4.360;2022-07-29T04:22:46;18.30;99.90
2391;DHT22;22957;50.824;4.360;2022-07-29T04:25:14;18.80;99.90
2391;DHT22;22957;50.824;4.360;2022-07-29T04:27:41;18.20;99.90
2391;DHT22;22957;50.824;4.360;2022-07-29T04:30:25;18.80;99.90
2391;DHT22;22957;50.824;4.360;2022-07-29T04:32:52;18.60;99.90
2391;DHT22;22957;50.824;4.360;2022-07-29T04:35:19;18.60;99.90
2391;DHT22;22957;50.824;4.360;2022-07-29T04:37:46;19.00;99.90
2391;DHT22;22957;50.824;4.360;2022-07-29T04:40:16;18.90;99.90
2391;DHT22;22957;50.824;4.360;2022-07-29T04:42:45;18.80;99.90
2391;DHT22;22957;50.824;4.360;2022-07-29T04:45:13;18.80;99.90
2391;DHT22;22957;50.824;4.360;2022-07-29T04:47:39;18.90;99.90
2391;DHT22;22957;50.824;4.360;2022-07-29T04:50:05;19.40;99.90
2391;DHT22;22957;50.824;4.360;2022-07-29T04:52:32;20.10;99.90
2391;DHT22;22957;50.824;4.360;2022-07-29T04:55:01;20.20;99.90
2391;DHT22;22957;50.824;4.360;2022-07-29T04:57:27;20.50;99.90
2391;DHT22;22957;50.824;4.360;2022-07-29T05:02:21;20.50;99.90
2391;DHT22;22957;50.824;4.360;2022-07-29T05:04:47;20.60;99.90
2391;DHT22;22957;50.824;4.360;2022-07-29T05:07:15;21.50;99.90
2391;DHT22;22957;50.824;4.360;2022-07-29T05:09:41;21.90;99.90
2391;DHT22;22957;50.824;4.360;2022-07-29T05:12:07;22.20;99.90
2391;DHT22;22957;50.824;4.360;2022-07-29T05:14:33;21.70;99.90
2391;DHT22;22957;50.824;4.360;2022-07-29T05:16:59;21.40;99.90
2391;DHT22;22957;50.824;4.360;2022-07-29T05:19:25;21.10;99.90
2391;DHT22;22957;50.824;4.360;2022-07-29T05:21:51;21.60;99.90
2391;DHT22;22957;50.824;4.360;2022-07-29T05:24:23;22.20;99.90
2391;DHT22;22957;50.824;4.360;2022-07-29T05:26:49;22.20;99.90
2391;DHT22;22957;50.824;4.360;2022-07-29T05:29:18;21.40;99.90
2391;DHT22;22957;50.824;4.360;2022-07-29T05:31:48;22.10;99.90
2391;DHT22;22957;50.824;4.360;2022-07-29T05:34:14;21.80;99.90
2391;DHT22;22957;50.824;4.360;2022-07-29T05:36:41;21.10;99.90
2391;DHT22;22957;50.824;4.360;2022-07-29T05:44:18;20.10;99.90
2391;DHT22;22957;50.824;4.360;2022-07-29T05:46:48;18.80;99.90
2391;DHT22;22957;50.824;4.360;2022-07-29T05:49:14;19.20;99.90
2391;DHT22;22957;50.824;4.360;2022-07-29T05:51:41;19.10;99.90
2391;DHT22;22957;50.824;4.360;2022-07-29T05:54:07;18.40;99.90
2391;DHT22;22957;50.824;4.360;2022-07-29T05:56:36;18.00;99.90
2391;DHT22;22957;50.824;4.360;2022-07-29T05:59:02;18.70;99.90
2391;DHT22;22957;50.824;4.360;2022-07-29T06:01:27;20.10;99.90
2391;DHT22;22957;50.824;4.360;2022-07-29T06:03:53;21.00;99.90
2391;DHT22;22957;50.824;4.360;2022-07-29T06:06:22;20.60;99.90
2391;DHT22;22957;50.824;4.360;2022-07-29T06:08:53;20.90;99.90
2391;DHT22;22957;50.824;4.360;2022-07-29T06:11:20;21.60;99.90
2391;DHT22;22957;50.824;4.360;2022-07-29T06:13:46;22.60;99.90
2391;DHT22;22957;50.824;4.360;2022-07-29T06:16:12;22.50;99.90
2391;DHT22;22957;50.824;4.360;2022-07-29T06:18:38;21.40;99.90
2391;DHT22;22957;50.824;4.360;2022-07-29T06:21:13;20.60;99.90
2391;DHT22;22957;50.824;4.360;2022-07-29T06:24:05;21.60;99.90
2391;DHT22;22957;50.824;4.360;2022-07-29T06:26:34;22.20;99.90
2391;DHT22;22957;50.824;4.360;2022-07-29T06:29:03;22.60;99.90
2391;DHT22;22957;50.824;4.360;2022-07-29T06:39:17;24.40;99.90
2391;DHT22;22957;50.824;4.360;2022-07-29T07:31:17;28.20;93.50
2391;DHT22;22957;50.824;4.360;2022-07-29T07:34:05;28.50;92.30
2391;DHT22;22957;50.824;4.360;2022-07-29T07:36:49;28.50;93.50
2391;DHT22;22957;50.824;4.360;2022-07-29T07:39:41;29.60;91.80
2391;DHT22;22957;50.824;4.360;2022-07-29T07:44:42;31.50;89.60
2391;DHT22;22957;50.824;4.360;2022-07-29T22:37:45;21.40;99.90
2391;DHT22;22957;50.824;4.360;2022-07-29T22:43:09;21.30;99.90
2391;DHT22;22957;50.824;4.360;2022-07-29T22:45:36;20.70;99.90
2391;DHT22;22957;50.824;4.360;2022-07-29T22:48:02;20.70;99.90
2391;DHT22;22957;50.824;4.360;2022-07-29T22:50:32;20.70;99.90
2391;DHT22;22957;50.824;4.360;2022-07-29T22:52:59;21.00;99.90
2391;DHT22;22957;50.824;4.360;2022-07-29T22:55:27;21.00;99.90
2391;DHT22;22957;50.824;4.360;2022-07-29T22:58:06;20.80;99.90
2391;DHT22;22957;50.824;4.360;2022-07-29T23:00:36;20.20;99.90
2391;DHT22;22957;50.824;4.360;2022-07-29T23:03:08;20.70;99.90
2391;DHT22;22957;50.824;4.360;2022-07-29T23:05:36;21.00;99.90
2391;DHT22;22957;50.824;4.360;2022-07-29T23:08:02;20.80;99.90
2391;DHT22;22957;50.824;4.360;2022-07-29T23:10:29;21.00;99.90
2391;DHT22;22957;50.824;4.360;2022-07-29T23:12:55;20.20;99.90
2391;DHT22;22957;50.824;4.360;2022-07-29T23:15:21;19.80;99.90
2391;DHT22;22957;50.824;4.360;2022-07-29T23:20:23;20.60;99.90
2391;DHT22;22957;50.824;4.360;2022-07-29T23:22:52;20.50;99.90
2391;DHT22;22957;50.824;4.360;2022-07-29T23:25:18;20.30;99.90
2391;DHT22;22957;50.824;4.360;2022-07-29T23:27:48;20.40;99.90
2391;DHT22;22957;50.824;4.360;2022-07-29T23:30:16;20.50;99.90
2391;DHT22;22957;50.824;4.360;2022-07-29T23:32:42;20.20;99.90
2391;DHT22;22957;50.824;4.360;2022-07-29T23:35:10;20.10;99.90
2391;DHT22;22957;50.824;4.360;2022-07-29T23:37:37;20.20;99.90
2391;DHT22;22957;50.824;4.360;2022-07-29T23:40:04;20.10;99.90
2391;DHT22;22957;50.824;4.360;2022-07-29T23:42:31;20.10;99.90
2391;DHT22;22957;50.824;4.360;2022-07-29T23:44:57;20.20;99.90
2391;DHT22;22957;50.824;4.360;2022-07-29T23:47:23;20.20;99.90
2391;DHT22;22957;50.824;4.360;2022-07-29T23:49:49;20.00;99.90
2391;DHT22;22957;50.824;4.360;2022-07-29T23:52:16;20.00;99.90
2391;DHT22;22957;50.824;4.360;2022-07-29T23:54:43;20.40;99.90
2391;DHT22;22957;50.824;4.360;2022-07-29T23:57:08;20.00;99.90
2391;DHT22;22957;50.824;4.360;2022-07-29T23:59:36;19.70;99.90
